createdAt,value
2023-04-06T00:01:18.450Z,6.07
2023-04-06T00:03:46.133Z,5.03
2023-04-06T00:06:14.912Z,5.83
2023-04-06T00:08:42.472Z,5.30
2023-04-06T00:11:09.906Z,5.43
2023-04-06T00:13:37.317Z,5.03
2023-04-06T00:16:06.597Z,5.60
2023-04-06T00:18:33.951Z,5.37
2023-04-06T00:21:01.330Z,5.70
2023-04-06T00:23:28.711Z,6.20
2023-04-06T00:25:56.566Z,6.27
2023-04-06T00:28:25.585Z,6.20
2023-04-06T00:30:56.192Z,6.40
2023-04-06T00:33:24.032Z,5.60
2023-04-06T00:35:51.899Z,5.10
2023-04-06T00:38:19.425Z,5.87
2023-04-06T00:40:46.975Z,4.87
2023-04-06T00:43:14.485Z,5.50
2023-04-06T00:45:42.404Z,6.20
2023-04-06T00:48:09.969Z,6.20
2023-04-06T00:50:37.331Z,6.20
2023-04-06T00:53:04.731Z,5.80
2023-04-06T00:55:32.157Z,6.13
2023-04-06T00:58:01.551Z,6.77
2023-04-06T01:00:28.922Z,5.80
2023-04-06T01:02:56.293Z,6.93
2023-04-06T01:05:23.746Z,6.00
2023-04-06T01:07:51.173Z,6.70
2023-04-06T01:10:25.494Z,6.20
2023-04-06T01:12:52.921Z,5.47
2023-04-06T01:15:21.685Z,5.53
2023-04-06T01:17:49.202Z,6.13
2023-04-06T01:20:16.920Z,6.30
2023-04-06T01:22:44.297Z,7.33
2023-04-06T01:25:12.092Z,7.10
2023-04-06T01:27:39.479Z,6.63
2023-04-06T01:30:07.366Z,6.70
2023-04-06T01:32:34.793Z,6.63
2023-04-06T01:35:02.153Z,6.30
2023-04-06T01:37:31.410Z,5.90
2023-04-06T01:39:58.874Z,6.67
2023-04-06T01:42:26.918Z,7.07
2023-04-06T01:44:54.315Z,6.13
2023-04-06T01:47:21.793Z,6.33
2023-04-06T01:49:49.205Z,6.50
2023-04-06T01:52:17.078Z,6.53
2023-04-06T01:54:44.439Z,6.43
2023-04-06T01:57:12.125Z,7.00
2023-04-06T01:59:39.558Z,6.90
2023-04-06T02:02:06.961Z,7.17
2023-04-06T02:04:34.344Z,7.27
2023-04-06T02:07:01.817Z,6.80
2023-04-06T02:09:29.168Z,6.10
2023-04-06T02:11:56.628Z,6.13
2023-04-06T02:14:25.545Z,6.87
2023-04-06T02:16:53.030Z,7.70
2023-04-06T02:19:20.525Z,7.30
2023-04-06T02:21:47.953Z,7.10
2023-04-06T02:24:15.428Z,7.20
2023-04-06T02:26:42.830Z,5.93
2023-04-06T02:29:10.808Z,6.70
2023-04-06T02:31:38.278Z,6.23
2023-04-06T02:34:05.760Z,6.40
2023-04-06T02:36:33.200Z,5.80
2023-04-06T02:39:00.585Z,6.63
2023-04-06T02:41:27.982Z,6.90
2023-04-06T02:43:55.352Z,6.67
2023-04-06T02:46:22.951Z,6.23
2023-04-06T02:48:50.403Z,6.83
2023-04-06T02:51:17.769Z,6.80
2023-04-06T02:53:45.161Z,6.07
2023-04-06T02:56:12.537Z,7.10
2023-04-06T02:58:40.100Z,6.20
2023-04-06T03:01:07.485Z,6.30
2023-04-06T03:03:35.041Z,5.70
2023-04-06T03:06:02.600Z,5.73
2023-04-06T03:08:30.194Z,7.13
2023-04-06T03:10:57.627Z,6.00
2023-04-06T03:13:25.017Z,6.20
2023-04-06T03:15:52.455Z,6.63
2023-04-06T03:18:21.441Z,6.40
2023-04-06T03:20:48.853Z,6.33
2023-04-06T03:23:16.265Z,6.67
2023-04-06T03:25:43.663Z,6.10
2023-04-06T03:28:11.046Z,6.20
2023-04-06T03:30:38.427Z,6.10
2023-04-06T03:33:05.884Z,6.33
2023-04-06T03:35:33.307Z,5.53
2023-04-06T03:38:00.849Z,6.50
2023-04-06T03:40:28.234Z,7.10
2023-04-06T03:42:55.607Z,6.13
2023-04-06T03:45:23.009Z,7.00
2023-04-06T03:47:50.512Z,6.80
2023-04-06T03:50:17.998Z,5.73
2023-04-06T03:52:45.524Z,7.13
2023-04-06T03:55:12.953Z,6.50
2023-04-06T03:57:40.448Z,6.50
2023-04-06T04:00:08.256Z,6.60
2023-04-06T04:02:36.219Z,6.00
2023-04-06T04:05:03.880Z,6.63
2023-04-06T04:07:31.402Z,6.87
2023-04-06T04:09:58.814Z,6.63
2023-04-06T04:12:26.235Z,6.03
2023-04-06T04:14:53.571Z,6.97
2023-04-06T04:17:21.758Z,7.00
2023-04-06T04:19:49.184Z,6.70
2023-04-06T04:22:16.610Z,6.37
2023-04-06T04:24:43.985Z,7.17
2023-04-06T04:27:11.314Z,7.10
2023-04-06T04:29:38.682Z,6.63
2023-04-06T04:32:06.544Z,6.30
2023-04-06T04:34:34.012Z,7.80
2023-04-06T04:37:01.419Z,6.50
2023-04-06T04:39:28.792Z,6.70
2023-04-06T04:41:56.158Z,6.97
2023-04-06T04:44:23.548Z,7.50
2023-04-06T04:46:50.933Z,7.10
2023-04-06T04:49:18.295Z,6.70
2023-04-06T04:51:45.670Z,7.40
2023-04-06T04:54:13.060Z,7.80
2023-04-06T04:56:40.509Z,7.40
2023-04-06T04:59:08.032Z,7.30
2023-04-06T05:01:43.961Z,7.47
2023-04-06T05:04:04.732Z,7.73
2023-04-06T05:06:32.090Z,7.70
2023-04-06T05:08:59.407Z,7.10
2023-04-06T05:11:27.254Z,7.83
2023-04-06T05:13:55.455Z,6.70
2023-04-06T05:16:22.976Z,7.30
2023-04-06T05:18:50.549Z,6.80
2023-04-06T05:21:18.090Z,7.93
2023-04-06T05:23:45.407Z,6.83
2023-04-06T05:26:13.050Z,7.27
2023-04-06T05:28:40.448Z,7.40
2023-04-06T05:31:07.844Z,7.40
2023-04-06T05:33:35.226Z,7.23
2023-04-06T05:36:02.718Z,6.50
2023-04-06T05:38:30.223Z,7.80
2023-04-06T05:40:57.616Z,7.80
2023-04-06T05:43:25.061Z,7.63
2023-04-06T05:45:52.462Z,8.27
2023-04-06T05:48:19.911Z,8.43
2023-04-06T05:50:51.330Z,8.40
2023-04-06T05:53:18.769Z,7.80
2023-04-06T05:55:46.155Z,7.90
2023-04-06T05:58:13.603Z,8.17
2023-04-06T06:00:40.918Z,7.73
2023-04-06T06:03:09.434Z,8.17
2023-04-06T06:05:36.850Z,8.27
2023-04-06T06:08:04.386Z,8.57
2023-04-06T06:10:31.836Z,8.47
2023-04-06T06:12:59.214Z,7.90
2023-04-06T06:15:26.880Z,8.73
2023-04-06T06:17:54.269Z,8.67
2023-04-06T06:20:21.662Z,7.40
2023-04-06T06:22:49.034Z,7.27
2023-04-06T06:25:16.581Z,8.53
2023-04-06T06:27:43.932Z,8.50
2023-04-06T06:30:11.520Z,8.40
2023-04-06T06:32:38.904Z,8.70
2023-04-06T06:35:06.587Z,7.47
2023-04-06T06:37:34.016Z,7.80
2023-04-06T06:40:01.360Z,8.47
2023-04-06T06:42:28.825Z,7.80
2023-04-06T06:44:56.150Z,7.17
2023-04-06T06:47:23.595Z,8.17
2023-04-06T06:49:50.946Z,7.50
2023-04-06T06:52:18.343Z,7.20
2023-04-06T06:54:45.911Z,8.03
2023-04-06T06:57:13.299Z,7.60
2023-04-06T06:59:40.738Z,7.90
2023-04-06T07:02:08.144Z,7.73
2023-04-06T07:04:36.207Z,7.30
2023-04-06T07:07:04.439Z,8.17
2023-04-06T07:09:31.868Z,8.00
2023-04-06T07:11:59.231Z,7.77
2023-04-06T07:14:27.092Z,6.60
2023-04-06T07:16:54.501Z,8.13
2023-04-06T07:19:21.917Z,7.33
2023-04-06T07:21:50.360Z,7.40
2023-04-06T07:24:17.747Z,7.53
2023-04-06T07:26:45.161Z,7.23
2023-04-06T07:29:13.515Z,7.37
2023-04-06T07:31:41.220Z,7.60
2023-04-06T07:34:08.751Z,8.00
2023-04-06T07:36:36.461Z,7.20
2023-04-06T07:39:03.862Z,8.00
2023-04-06T07:41:31.719Z,7.30
2023-04-06T07:43:59.124Z,7.90
2023-04-06T07:46:26.549Z,7.50
2023-04-06T07:48:53.970Z,7.60
2023-04-06T07:51:21.373Z,7.90
2023-04-06T07:53:48.778Z,8.47
2023-04-06T07:56:16.243Z,7.80
2023-04-06T07:58:43.679Z,7.17
2023-04-06T08:01:11.305Z,8.23
2023-04-06T08:03:39.015Z,8.10
2023-04-06T08:06:06.816Z,7.37
2023-04-06T08:08:34.192Z,9.00
2023-04-06T08:11:03.476Z,8.57
2023-04-06T08:13:31.300Z,9.77
2023-04-06T08:15:58.885Z,8.20
2023-04-06T08:18:26.544Z,8.30
2023-04-06T08:20:54.374Z,7.93
2023-04-06T08:23:21.837Z,7.90
2023-04-06T08:25:49.404Z,8.00
2023-04-06T08:28:16.878Z,9.00
2023-04-06T08:30:44.444Z,8.93
2023-04-06T08:33:11.919Z,8.60
2023-04-06T08:35:39.323Z,9.17
2023-04-06T08:38:06.942Z,9.30
2023-04-06T08:40:40.774Z,8.40
2023-04-06T08:43:09.988Z,9.00
2023-04-06T08:45:37.387Z,8.73
2023-04-06T08:48:05.817Z,8.60
2023-04-06T08:50:34.165Z,8.23
2023-04-06T08:53:02.500Z,8.27
2023-04-06T08:55:30.142Z,8.67
2023-04-06T08:57:57.903Z,9.23
2023-04-06T09:00:27.083Z,8.73
2023-04-06T09:02:56.396Z,9.60
2023-04-06T09:05:25.718Z,9.30
2023-04-06T09:07:53.148Z,8.73
2023-04-06T09:10:21.417Z,9.93
2023-04-06T09:12:48.799Z,9.77
2023-04-06T09:15:22.851Z,9.53
2023-04-06T09:17:49.832Z,9.03
2023-04-06T09:20:18.797Z,9.30
2023-04-06T09:22:46.197Z,10.20
2023-04-06T09:25:15.468Z,9.90
2023-04-06T09:27:45.321Z,10.10
2023-04-06T09:30:17.593Z,10.33
2023-04-06T09:32:49.498Z,10.30
2023-04-06T09:35:16.955Z,10.90
2023-04-06T09:37:44.720Z,9.50
2023-04-06T09:40:12.280Z,10.80
2023-04-06T09:42:41.295Z,9.20
2023-04-06T09:45:08.904Z,10.40
2023-04-06T09:47:37.980Z,10.10
2023-04-06T09:50:05.558Z,9.70
2023-04-06T09:52:34.474Z,11.50
2023-04-06T09:55:03.768Z,9.50
2023-04-06T09:57:32.690Z,10.30
2023-04-06T10:00:06.306Z,9.67
2023-04-06T10:02:51.860Z,9.73
2023-04-06T10:05:29.656Z,10.30
2023-04-06T10:08:00.909Z,9.63
2023-04-06T10:10:28.806Z,10.37
2023-04-06T10:12:56.659Z,10.90
2023-04-06T10:15:24.953Z,9.20
2023-04-06T10:17:52.894Z,9.37
2023-04-06T10:20:24.608Z,10.50
2023-04-06T10:23:05.431Z,10.20
2023-04-06T10:25:33.512Z,10.60
2023-04-06T10:28:05.414Z,9.60
2023-04-06T10:30:33.952Z,9.37
2023-04-06T10:33:01.443Z,9.47
2023-04-06T10:35:41.798Z,11.17
2023-04-06T10:38:09.254Z,9.80
2023-04-06T10:40:39.906Z,9.77
2023-04-06T10:43:11.098Z,10.00
2023-04-06T10:45:38.966Z,10.00
2023-04-06T10:48:07.890Z,9.47
2023-04-06T10:50:37.387Z,10.07
2023-04-06T10:53:04.768Z,9.37
2023-04-06T10:55:32.445Z,10.03
2023-04-06T10:57:59.841Z,10.30
2023-04-06T11:00:33.436Z,11.40
2023-04-06T11:03:02.759Z,10.10
2023-04-06T11:05:31.002Z,10.07
2023-04-06T11:07:58.391Z,10.63
2023-04-06T11:10:25.882Z,10.50
2023-04-06T11:12:56.271Z,9.53
2023-04-06T11:15:23.745Z,9.90
2023-04-06T11:17:51.239Z,11.20
2023-04-06T11:20:20.347Z,10.30
2023-04-06T11:22:53.557Z,9.80
2023-04-06T11:25:20.979Z,9.83
2023-04-06T11:27:49.152Z,10.50
2023-04-06T11:30:16.820Z,11.27
2023-04-06T11:32:47.439Z,9.83
2023-04-06T11:35:16.925Z,10.60
2023-04-06T11:37:44.779Z,10.33
2023-04-06T11:40:12.102Z,10.40
2023-04-06T11:42:39.480Z,10.30
2023-04-06T11:45:09.686Z,9.50
2023-04-06T11:47:38.568Z,10.60
2023-04-06T11:50:09.743Z,10.97
2023-04-06T11:52:37.385Z,10.20
2023-04-06T11:55:14.899Z,11.07
2023-04-06T11:57:42.597Z,10.90
2023-04-06T12:00:10.555Z,11.60
2023-04-06T12:02:38.542Z,10.03
2023-04-06T12:05:06.774Z,10.30
2023-04-06T12:07:34.475Z,10.50
2023-04-06T12:10:03.577Z,10.50
2023-04-06T12:12:31.231Z,10.63
2023-04-06T12:14:59.432Z,11.20
2023-04-06T12:17:26.918Z,10.70
2023-04-06T12:19:54.271Z,9.77
2023-04-06T12:22:21.677Z,10.60
2023-04-06T12:24:49.040Z,9.40
2023-04-06T12:27:16.424Z,9.33
2023-04-06T12:29:43.826Z,11.70
2023-04-06T12:32:11.219Z,9.00
2023-04-06T12:34:39.362Z,9.93
2023-04-06T12:37:06.842Z,9.57
2023-04-06T12:39:34.217Z,10.00
2023-04-06T12:42:02.281Z,10.97
2023-04-06T12:44:29.931Z,10.50
2023-04-06T12:46:57.645Z,11.50
2023-04-06T12:49:25.208Z,10.27
2023-04-06T12:51:52.611Z,9.70
2023-04-06T12:54:20.771Z,9.97
2023-04-06T12:56:48.153Z,10.73
2023-04-06T12:59:15.696Z,11.00
2023-04-06T13:01:43.105Z,10.00
2023-04-06T13:04:10.504Z,9.50
2023-04-06T13:06:37.898Z,10.13
2023-04-06T13:09:06.454Z,9.90
2023-04-06T13:11:33.843Z,9.50
2023-04-06T13:14:01.232Z,9.10
2023-04-06T13:16:28.805Z,9.70
2023-04-06T13:18:56.606Z,10.53
2023-04-06T13:21:24.005Z,10.50
2023-04-06T13:23:51.386Z,9.13
2023-04-06T13:26:18.789Z,10.37
2023-04-06T13:28:46.253Z,9.33
2023-04-06T13:31:13.670Z,9.40
2023-04-06T13:33:41.863Z,9.13
2023-04-06T13:36:09.297Z,8.93
2023-04-06T13:38:38.500Z,9.70
2023-04-06T13:41:06.251Z,9.63
2023-04-06T13:43:33.632Z,9.90
2023-04-06T13:46:02.038Z,9.93
2023-04-06T13:48:29.391Z,9.80
2023-04-06T13:50:56.794Z,10.33
2023-04-06T13:53:24.174Z,10.50
2023-04-06T13:55:57.573Z,9.93
2023-04-06T13:58:24.958Z,9.63
2023-04-06T14:00:53.403Z,10.30
2023-04-06T14:03:21.239Z,9.70
2023-04-06T14:05:48.737Z,10.17
2023-04-06T14:08:16.187Z,9.97
2023-04-06T14:10:43.595Z,10.30
2023-04-06T14:13:11.334Z,9.30
2023-04-06T14:15:38.797Z,9.10
2023-04-06T14:18:06.834Z,8.63
2023-04-06T14:20:34.454Z,9.30
2023-04-06T14:23:04.750Z,8.57
2023-04-06T14:25:35.646Z,9.20
2023-04-06T14:28:03.340Z,9.37
2023-04-06T14:30:32.324Z,8.17
2023-04-06T14:32:59.861Z,7.73
2023-04-06T14:35:28.786Z,8.90
2023-04-06T14:37:57.506Z,8.10
2023-04-06T14:40:25.001Z,7.63
2023-04-06T14:42:52.543Z,7.30
2023-04-06T14:45:21.572Z,7.40
2023-04-06T14:47:48.972Z,8.37
2023-04-06T14:50:16.352Z,8.00
2023-04-06T14:52:43.724Z,6.67
2023-04-06T14:55:11.124Z,6.80
2023-04-06T14:57:38.501Z,8.43
2023-04-06T15:00:07.822Z,7.40
2023-04-06T15:02:35.417Z,7.60
2023-04-06T15:05:03.687Z,7.37
2023-04-06T15:07:31.064Z,6.90
2023-04-06T15:09:58.461Z,6.60
2023-04-06T15:12:26.525Z,6.57
2023-04-06T15:14:53.873Z,6.70
2023-04-06T15:17:21.277Z,6.40
2023-04-06T15:19:48.635Z,6.87
2023-04-06T15:22:16.032Z,6.40
2023-04-06T15:24:43.419Z,6.13
2023-04-06T15:27:10.821Z,7.50
2023-04-06T15:29:38.196Z,7.60
2023-04-06T15:32:06.117Z,6.70
2023-04-06T15:34:34.949Z,6.17
2023-04-06T15:37:04.575Z,6.63
2023-04-06T15:39:32.334Z,7.00
2023-04-06T15:41:59.736Z,6.93
2023-04-06T15:44:27.388Z,7.67
2023-04-06T15:46:54.772Z,7.10
2023-04-06T15:49:22.165Z,7.50
2023-04-06T15:51:50.422Z,7.40
2023-04-06T15:54:19.739Z,7.40
2023-04-06T15:56:47.398Z,7.30
2023-04-06T15:59:15.448Z,6.73
2023-04-06T16:01:43.630Z,6.87
2023-04-06T16:04:11.811Z,6.27
2023-04-06T16:06:39.244Z,6.00
2023-04-06T16:09:06.630Z,5.73
2023-04-06T16:11:34.041Z,6.07
2023-04-06T16:14:01.442Z,6.30
2023-04-06T16:16:28.876Z,6.67
2023-04-06T16:18:56.211Z,6.30
2023-04-06T16:21:23.606Z,6.00
2023-04-06T16:23:50.992Z,4.33
2023-04-06T16:26:18.463Z,4.87
2023-04-06T16:28:47.270Z,4.87
2023-04-06T16:31:21.979Z,4.90
2023-04-06T16:33:56.925Z,4.20
2023-04-06T16:36:24.630Z,4.83
2023-04-06T16:38:52.124Z,4.13
2023-04-06T16:41:19.539Z,4.20
2023-04-06T16:43:47.287Z,3.90
2023-04-06T16:46:14.910Z,4.17
2023-04-06T16:48:42.374Z,4.93
2023-04-06T16:51:10.512Z,5.13
2023-04-06T16:53:38.602Z,5.07
2023-04-06T16:56:06.738Z,4.90
2023-04-06T16:58:34.335Z,4.97
2023-04-06T17:01:02.212Z,5.40
2023-04-06T17:03:30.778Z,6.00
2023-04-06T17:05:58.425Z,5.50
2023-04-06T17:08:25.808Z,5.73
2023-04-06T17:13:22.350Z,6.40
2023-04-06T17:15:49.679Z,5.20
2023-04-06T17:18:17.052Z,5.70
2023-04-06T17:20:46.085Z,5.67
2023-04-06T17:23:13.626Z,6.63
2023-04-06T17:25:41.079Z,6.47
2023-04-06T17:28:08.492Z,5.60
2023-04-06T17:30:36.021Z,5.80
2023-04-06T17:33:03.451Z,5.50
2023-04-06T17:35:30.833Z,5.33
2023-04-06T17:37:58.260Z,6.00
2023-04-06T17:40:26.012Z,5.40
2023-04-06T17:42:53.404Z,5.83
2023-04-06T17:45:20.790Z,6.70
2023-04-06T17:47:48.186Z,5.63
2023-04-06T17:50:15.573Z,5.83
2023-04-06T17:52:42.963Z,6.93
2023-04-06T17:55:10.404Z,5.80
2023-04-06T17:57:41.033Z,6.40
2023-04-06T18:00:08.153Z,6.20
2023-04-06T18:02:35.722Z,6.40
2023-04-06T18:05:03.345Z,6.77
2023-04-06T18:07:30.731Z,6.27
2023-04-06T18:09:58.118Z,7.00
2023-04-06T18:12:25.500Z,7.13
2023-04-06T18:14:52.887Z,7.50
2023-04-06T18:17:20.479Z,7.87
2023-04-06T18:19:47.841Z,7.70
2023-04-06T18:22:16.140Z,7.67
2023-04-06T18:24:43.650Z,8.17
2023-04-06T18:27:12.779Z,7.13
2023-04-06T18:29:40.759Z,7.67
2023-04-06T18:32:08.125Z,8.17
2023-04-06T18:34:36.302Z,8.20
2023-04-06T18:37:03.714Z,8.00
2023-04-06T18:39:31.186Z,8.60
2023-04-06T18:41:58.611Z,8.00
2023-04-06T18:44:26.432Z,7.67
2023-04-06T18:46:55.453Z,8.30
2023-04-06T18:49:22.868Z,8.27
2023-04-06T18:51:50.281Z,8.93
2023-04-06T18:54:17.682Z,9.63
2023-04-06T18:56:46.338Z,9.10
2023-04-06T18:59:13.861Z,9.33
2023-04-06T19:01:43.007Z,9.37
2023-04-06T19:04:11.343Z,9.90
2023-04-06T19:06:38.875Z,11.00
2023-04-06T19:09:07.334Z,10.37
2023-04-06T19:11:34.760Z,12.00
2023-04-06T19:14:02.170Z,10.20
2023-04-06T19:16:29.705Z,10.97
2023-04-06T19:18:57.346Z,12.27
2023-04-06T19:21:26.072Z,11.77
2023-04-06T19:23:55.450Z,11.10
2023-04-06T19:26:23.931Z,13.30
2023-04-06T19:28:51.462Z,10.70
2023-04-06T19:31:19.238Z,12.50
2023-04-06T19:33:47.177Z,11.47
2023-04-06T19:36:15.678Z,11.70
2023-04-06T19:38:42.998Z,12.07
2023-04-06T19:41:10.402Z,12.17
2023-04-06T19:43:37.777Z,12.90
2023-04-06T19:46:05.335Z,13.63
2023-04-06T19:48:33.638Z,11.90
2023-04-06T19:51:01.026Z,12.33
2023-04-06T19:53:28.707Z,12.00
2023-04-06T19:55:56.068Z,12.00
2023-04-06T19:58:23.537Z,11.80
2023-04-06T20:00:50.939Z,11.50
2023-04-06T20:03:18.437Z,12.77
2023-04-06T20:05:46.604Z,13.20
2023-04-06T20:08:14.082Z,12.73
2023-04-06T20:10:41.541Z,11.27
2023-04-06T20:13:08.940Z,12.77
2023-04-06T20:15:36.486Z,11.03
2023-04-06T20:18:04.015Z,10.63
2023-04-06T20:20:31.762Z,11.73
2023-04-06T20:22:59.185Z,11.80
2023-04-06T20:25:27.070Z,13.50
2023-04-06T20:27:54.461Z,13.60
2023-04-06T20:30:22.045Z,12.73
2023-04-06T20:32:49.468Z,14.73
2023-04-06T20:35:16.987Z,14.53
2023-04-06T20:37:44.415Z,11.70
2023-04-06T20:40:12.705Z,11.30
2023-04-06T20:42:40.246Z,12.50
2023-04-06T20:45:07.825Z,10.67
2023-04-06T20:47:35.621Z,11.90
2023-04-06T20:50:03.673Z,10.93
2023-04-06T20:52:31.160Z,10.50
2023-04-06T20:54:58.565Z,11.03
2023-04-06T20:57:26.269Z,10.87
2023-04-06T20:59:53.732Z,10.40
2023-04-06T21:02:21.272Z,9.83
2023-04-06T21:04:48.913Z,8.80
2023-04-06T21:07:16.579Z,10.27
2023-04-06T21:09:43.972Z,10.40
2023-04-06T21:12:11.391Z,9.23
2023-04-06T21:14:38.845Z,9.80
2023-04-06T21:17:06.699Z,9.00
2023-04-06T21:19:34.115Z,8.80
2023-04-06T21:22:01.593Z,10.27
2023-04-06T21:24:29.021Z,12.03
2023-04-06T21:26:56.395Z,11.67
2023-04-06T21:29:23.785Z,12.03
2023-04-06T21:31:51.178Z,11.20
2023-04-06T21:34:18.714Z,11.90
2023-04-06T21:36:46.489Z,13.10
2023-04-06T21:39:13.890Z,11.17
2023-04-06T21:41:42.036Z,12.40
2023-04-06T21:44:09.424Z,11.47
2023-04-06T21:46:36.946Z,12.97
2023-04-06T21:49:04.287Z,12.70
2023-04-06T21:51:32.187Z,11.90
2023-04-06T21:53:59.625Z,13.97
2023-04-06T21:56:27.022Z,13.70
2023-04-06T21:58:54.709Z,12.30
2023-04-06T22:01:22.139Z,12.00
2023-04-06T22:03:49.796Z,12.97
2023-04-06T22:06:17.390Z,15.00
2023-04-06T22:08:46.972Z,14.50
2023-04-06T22:11:14.355Z,12.53
2023-04-06T22:13:41.785Z,14.13
2023-04-06T22:16:09.188Z,13.70
2023-04-06T22:18:38.895Z,11.97
2023-04-06T22:21:05.855Z,12.63
2023-04-06T22:23:33.514Z,13.30
2023-04-06T22:26:00.915Z,10.83
2023-04-06T22:28:28.366Z,13.70
2023-04-06T22:30:55.746Z,13.80
2023-04-06T22:33:23.148Z,13.20
2023-04-06T22:35:50.926Z,12.83
2023-04-06T22:38:18.370Z,13.13
2023-04-06T22:40:45.913Z,12.30
2023-04-06T22:43:13.309Z,11.80
2023-04-06T22:45:41.547Z,11.83
2023-04-06T22:48:08.881Z,12.70
2023-04-06T22:50:36.267Z,13.53
2023-04-06T22:53:03.655Z,13.60
2023-04-06T22:55:31.213Z,16.27
2023-04-06T22:57:58.595Z,14.40
2023-04-06T23:00:26.138Z,15.03
2023-04-06T23:02:53.607Z,16.80
2023-04-06T23:05:21.175Z,16.47
2023-04-06T23:07:48.618Z,17.57
2023-04-06T23:10:16.347Z,17.17
2023-04-06T23:12:43.766Z,15.97
2023-04-06T23:15:11.603Z,16.17
2023-04-06T23:17:39.030Z,18.70
2023-04-06T23:20:07.102Z,16.37
2023-04-06T23:22:34.499Z,18.20
2023-04-06T23:25:01.885Z,15.63
2023-04-06T23:27:29.264Z,16.60
2023-04-06T23:29:56.648Z,14.47
2023-04-06T23:32:24.105Z,15.60
2023-04-06T23:34:51.519Z,17.00
2023-04-06T23:37:18.926Z,15.10
2023-04-06T23:39:48.059Z,14.27
2023-04-06T23:42:15.527Z,13.80
2023-04-06T23:44:42.917Z,14.87
2023-04-06T23:47:10.692Z,15.40
2023-04-06T23:49:38.059Z,13.30
2023-04-06T23:52:05.536Z,14.83
2023-04-06T23:54:32.910Z,15.80
2023-04-06T23:57:01.085Z,17.20
2023-04-06T23:59:28.520Z,16.30
